Time;durP1;ratioP1;P1;durP2;ratioP2;P2;SDS_P1;SDS_P2;PMS_P1;PMS_P2;Temp;Humidity;BMP_temperature;BMP_pressure;BME280_temperature;BME280_humidity;BME280_pressure;Samples;Min_cycle;Max_cycle;Signal;HPM_P1;HPM_P2
2022/07/29 00:00:06;;;;;;;7.55;3.28;;;18.30;93.40;;;;;;5034428;28;20210;-68
2022/07/29 00:02:33;;;;;;;5.10;2.97;;;18.30;93.50;;;;;;5035946;28;20210;-68
2022/07/29 00:05:00;;;;;;;8.43;3.70;;;18.30;93.80;;;;;;5029777;28;20542;-70
2022/07/29 00:07:27;;;;;;;5.25;2.80;;;18.20;94.00;;;;;;5033572;28;20585;-70
2022/07/29 00:09:54;;;;;;;3.95;3.22;;;18.30;94.20;;;;;;5035218;28;20215;-70
2022/07/29 00:12:24;;;;;;;8.20;3.15;;;18.20;94.30;;;;;;5035808;28;20210;-70
2022/07/29 00:14:51;;;;;;;4.43;3.10;;;18.20;94.60;;;;;;5036235;28;20207;-69
2022/07/29 00:17:18;;;;;;;3.38;2.65;;;18.10;94.70;;;;;;5035414;28;20198;-70
2022/07/29 00:19:45;;;;;;;4.25;2.70;;;18.10;94.80;;;;;;5035013;28;20228;-69
2022/07/29 00:22:11;;;;;;;4.78;3.08;;;18.10;95.10;;;;;;5034040;28;20206;-69
2022/07/29 00:24:38;;;;;;;3.95;2.40;;;18.10;95.30;;;;;;5034918;28;20217;-69
2022/07/29 00:27:05;;;;;;;5.50;2.65;;;18.00;95.30;;;;;;5035357;28;20233;-69
2022/07/29 00:29:33;;;;;;;6.07;2.50;;;18.00;95.50;;;;;;5030613;28;20727;-69
2022/07/29 00:32:00;;;;;;;4.38;2.50;;;18.00;95.70;;;;;;5027789;28;20586;-69
2022/07/29 00:37:11;;;;;;;5.63;2.53;;;17.90;95.90;;;;;;5033506;28;20209;-70
2022/07/29 00:39:37;;;;;;;2.97;2.37;;;17.90;96.20;;;;;;5035347;28;20671;-70
2022/07/29 00:42:05;;;;;;;4.40;2.42;;;17.90;96.40;;;;;;5035367;28;20191;-69
2022/07/29 00:44:37;;;;;;;6.20;2.43;;;17.90;96.70;;;;;;5033140;28;20211;-70
2022/07/29 00:47:04;;;;;;;3.35;2.00;;;17.90;96.90;;;;;;5034785;28;20234;-69
2022/07/29 00:49:31;;;;;;;3.55;2.10;;;17.90;97.10;;;;;;5034240;28;20268;-68
2022/07/29 00:51:58;;;;;;;4.63;2.43;;;17.80;97.30;;;;;;5033899;28;20214;-68
2022/07/29 00:54:26;;;;;;;5.25;2.60;;;17.80;97.60;;;;;;5030510;28;20236;-69
2022/07/29 00:56:54;;;;;;;8.10;2.57;;;17.70;97.90;;;;;;5034397;28;20215;-70
2022/07/29 00:59:21;;;;;;;3.20;2.03;;;17.70;98.10;;;;;;5033163;28;20209;-69
2022/07/29 01:01:49;;;;;;;4.93;2.10;;;17.60;98.40;;;;;;5025506;28;20217;-69
2022/07/29 01:04:15;;;;;;;5.65;2.63;;;17.60;98.60;;;;;;5034085;28;20209;-67
2022/07/29 01:06:43;;;;;;;4.25;2.25;;;17.60;99.00;;;;;;5033314;28;20218;-69
2022/07/29 01:09:10;;;;;;;4.30;2.42;;;17.50;99.20;;;;;;5033858;28;20586;-69
2022/07/29 01:11:37;;;;;;;2.93;2.43;;;17.40;99.40;;;;;;5027660;28;20215;-68
2022/07/29 01:14:06;;;;;;;5.57;2.10;;;17.40;99.70;;;;;;5034431;28;20550;-69
2022/07/29 01:16:38;;;;;;;3.63;2.20;;;17.40;99.90;;;;;;5032339;28;20217;-68
2022/07/29 01:19:19;;;;;;;2.83;2.40;;;17.40;99.90;;;;;;5034482;28;20234;-68
2022/07/29 01:21:52;;;;;;;4.50;2.60;;;17.40;99.90;;;;;;5034312;28;20202;-69
2022/07/29 01:24:40;;;;;;;3.15;2.28;;;17.30;99.90;;;;;;5031709;28;20206;-68
2022/07/29 01:27:26;;;;;;;5.33;2.63;;;17.30;99.90;;;;;;5032797;28;20305;-68
2022/07/29 01:29:57;;;;;;;5.23;2.30;;;17.30;99.90;;;;;;5034751;28;20226;-69
2022/07/29 01:32:28;;;;;;;6.43;2.20;;;17.20;99.90;;;;;;5034574;28;20535;-69
2022/07/29 01:35:01;;;;;;;4.37;2.43;;;17.10;99.90;;;;;;5034209;28;20229;-69
2022/07/29 01:37:33;;;;;;;2.20;1.90;;;17.00;99.90;;;;;;5032848;28;20651;-68
2022/07/29 01:40:02;;;;;;;2.90;2.10;;;17.00;99.90;;;;;;5034140;28;20210;-70
2022/07/29 01:42:36;;;;;;;4.37;2.10;;;17.00;99.90;;;;;;5033833;28;20210;-69
2022/07/29 01:45:10;;;;;;;3.40;1.90;;;17.00;99.90;;;;;;5033412;28;20209;-69
2022/07/29 01:47:42;;;;;;;2.67;1.83;;;17.00;99.90;;;;;;5033162;28;20238;-68
2022/07/29 01:50:15;;;;;;;4.73;1.83;;;17.00;99.90;;;;;;5033804;28;20667;-70
2022/07/29 01:52:47;;;;;;;2.77;1.90;;;17.00;99.90;;;;;;5032819;28;20215;-69
2022/07/29 01:55:17;;;;;;;4.40;1.90;;;17.00;99.90;;;;;;5032644;28;20230;-69
2022/07/29 01:57:47;;;;;;;3.33;2.20;;;17.00;99.90;;;;;;5032883;28;20202;-69
2022/07/29 02:00:17;;;;;;;2.43;1.90;;;17.00;99.90;;;;;;5032651;28;20225;-68
2022/07/29 02:02:47;;;;;;;3.53;2.23;;;17.00;99.90;;;;;;5031762;28;20582;-67
2022/07/29 02:05:17;;;;;;;5.27;1.83;;;17.00;99.90;;;;;;5033015;28;20578;-69
2022/07/29 02:07:47;;;;;;;7.10;2.27;;;17.00;99.90;;;;;;5030237;28;20215;-68
2022/07/29 02:10:15;;;;;;;5.20;2.03;;;16.90;99.90;;;;;;5027503;28;20548;-68
2022/07/29 02:12:44;;;;;;;6.83;2.23;;;16.90;99.90;;;;;;5032723;28;20214;-68
2022/07/29 02:15:12;;;;;;;6.67;2.47;;;16.90;99.90;;;;;;5031459;28;20206;-69
2022/07/29 02:17:43;;;;;;;3.40;1.83;;;16.90;99.90;;;;;;5030721;28;20286;-69
2022/07/29 02:20:11;;;;;;;6.80;2.43;;;16.90;99.90;;;;;;5031909;28;20621;-70
2022/07/29 02:22:40;;;;;;;7.50;2.17;;;16.80;99.90;;;;;;5031487;28;20206;-69
2022/07/29 02:25:09;;;;;;;3.47;2.10;;;16.80;99.90;;;;;;5031969;28;20253;-69
2022/07/29 02:27:37;;;;;;;3.53;1.70;;;16.80;99.90;;;;;;5031676;28;20212;-68
2022/07/29 02:30:06;;;;;;;1.90;1.50;;;16.70;99.90;;;;;;5032441;28;20222;-69
2022/07/29 02:32:36;;;;;;;2.57;1.67;;;16.70;99.90;;;;;;5030267;28;20210;-67
2022/07/29 02:35:05;;;;;;;4.47;1.90;;;16.70;99.90;;;;;;5031950;28;20588;-68
2022/07/29 02:37:32;;;;;;;3.03;1.57;;;16.70;99.90;;;;;;5031882;28;20294;-69
2022/07/29 02:40:00;;;;;;;2.67;1.73;;;16.70;99.90;;;;;;5031438;28;20211;-68
2022/07/29 02:42:29;;;;;;;3.80;1.63;;;16.70;99.90;;;;;;5031844;28;20264;-68
2022/07/29 02:44:56;;;;;;;3.43;1.90;;;16.60;99.90;;;;;;5031110;28;20210;-69
2022/07/29 02:47:28;;;;;;;2.80;1.90;;;16.60;99.90;;;;;;5030377;28;20293;-68
2022/07/29 02:50:01;;;;;;;3.43;1.90;;;16.60;99.90;;;;;;5031596;28;20824;-68
2022/07/29 02:52:33;;;;;;;2.53;1.60;;;16.60;99.90;;;;;;5032126;28;20713;-70
2022/07/29 02:55:03;;;;;;;2.63;1.60;;;16.60;99.90;;;;;;5030098;28;20234;-69
2022/07/29 02:57:34;;;;;;;3.13;1.53;;;16.60;99.90;;;;;;5031804;28;20210;-69
2022/07/29 03:00:08;;;;;;;3.20;1.77;;;16.50;99.90;;;;;;5031060;28;20612;-69
2022/07/29 03:02:39;;;;;;;3.47;2.40;;;16.40;99.90;;;;;;5030867;28;20229;-69
2022/07/29 03:05:08;;;;;;;2.50;1.73;;;16.40;99.90;;;;;;5026182;28;20273;-69
2022/07/29 03:07:37;;;;;;;3.00;1.50;;;16.30;99.90;;;;;;5031242;28;20298;-68
2022/07/29 03:10:07;;;;;;;1.70;1.60;;;16.30;99.90;;;;;;5015153;28;20317;-68
2022/07/29 03:12:34;;;;;;;2.43;1.57;;;16.30;99.90;;;;;;5031551;28;20211;-68
2022/07/29 03:15:02;;;;;;;2.30;1.73;;;16.30;99.90;;;;;;5034527;28;20206;-68
2022/07/29 03:17:31;;;;;;;2.13;1.93;;;16.30;99.90;;;;;;5035248;28;20217;-69
2022/07/29 03:19:58;;;;;;;3.80;2.87;;;16.30;99.90;;;;;;5035059;28;20717;-68
2022/07/29 03:22:26;;;;;;;2.20;1.97;;;16.30;99.90;;;;;;5033016;28;20210;-70
2022/07/29 03:24:54;;;;;;;2.77;1.87;;;16.30;99.90;;;;;;5035776;28;20218;-70
2022/07/29 03:27:21;;;;;;;2.13;1.60;;;16.30;99.90;;;;;;5035102;28;20206;-69
2022/07/29 03:29:48;;;;;;;2.90;1.60;;;16.30;99.90;;;;;;5035347;28;20587;-69
2022/07/29 03:32:15;;;;;;;2.07;1.70;;;16.30;99.90;;;;;;5035522;28;20233;-69
2022/07/29 03:34:41;;;;;;;2.63;1.73;;;16.30;99.90;;;;;;5022138;28;20551;-69
2022/07/29 03:37:08;;;;;;;2.70;1.70;;;16.30;99.90;;;;;;5034769;28;20218;-69
2022/07/29 03:39:40;;;;;;;6.30;1.50;;;16.30;99.90;;;;;;5033725;28;20210;-68
2022/07/29 03:42:11;;;;;;;2.77;1.37;;;16.30;99.90;;;;;;5034967;28;20229;-68
2022/07/29 03:44:42;;;;;;;4.97;1.40;;;16.30;99.90;;;;;;5035322;28;20306;-69
2022/07/29 03:47:11;;;;;;;1.73;1.30;;;16.30;99.90;;;;;;5035105;28;20202;-69
2022/07/29 03:49:40;;;;;;;1.70;1.23;;;16.40;99.90;;;;;;5035063;28;20233;-69
2022/07/29 03:52:07;;;;;;;3.30;1.90;;;16.40;99.90;;;;;;5034464;28;20598;-68
2022/07/29 03:54:34;;;;;;;3.83;1.73;;;16.40;99.90;;;;;;5034642;28;20246;-69
2022/07/29 03:57:02;;;;;;;3.83;1.80;;;16.40;99.90;;;;;;5033629;28;20221;-69
2022/07/29 03:59:33;;;;;;;4.53;1.60;;;16.40;99.90;;;;;;5031071;28;20208;-68
2022/07/29 04:02:01;;;;;;;2.67;1.50;;;16.40;99.90;;;;;;5028932;28;20210;-69
2022/07/29 04:04:28;;;;;;;2.63;1.67;;;16.40;99.90;;;;;;5033871;28;20603;-69
2022/07/29 04:06:55;;;;;;;2.23;1.50;;;16.40;99.90;;;;;;5033792;28;20207;-70
2022/07/29 04:09:22;;;;;;;2.40;1.50;;;16.40;99.90;;;;;;5034666;28;20606;-69
2022/07/29 04:11:48;;;;;;;4.60;1.97;;;16.40;99.90;;;;;;5032870;28;20690;-69
2022/07/29 04:14:15;;;;;;;2.70;1.57;;;16.40;99.90;;;;;;5033265;28;20581;-69
2022/07/29 04:16:43;;;;;;;2.80;1.70;;;16.40;99.90;;;;;;5033763;28;20198;-69
2022/07/29 04:19:10;;;;;;;4.07;1.33;;;16.50;99.90;;;;;;5032775;28;20201;-68
2022/07/29 04:21:38;;;;;;;3.50;1.70;;;16.50;99.90;;;;;;5031393;28;20320;-70
2022/07/29 04:24:05;;;;;;;1.53;1.43;;;16.50;99.90;;;;;;5031500;28;21730;-70
2022/07/29 04:26:32;;;;;;;2.93;1.67;;;16.50;99.90;;;;;;5034704;28;20229;-69
2022/07/29 04:28:59;;;;;;;3.07;1.87;;;16.40;99.90;;;;;;5033524;28;20222;-68
2022/07/29 04:31:26;;;;;;;2.83;1.80;;;16.50;99.90;;;;;;5028054;28;20222;-68
2022/07/29 04:33:54;;;;;;;8.27;1.83;;;16.50;99.90;;;;;;5028356;28;20237;-70
2022/07/29 04:36:21;;;;;;;3.57;1.90;;;16.50;99.90;;;;;;5033424;28;20793;-69
2022/07/29 04:38:47;;;;;;;8.43;1.80;;;16.60;99.90;;;;;;5034792;28;20240;-69
2022/07/29 04:41:14;;;;;;;3.07;1.40;;;16.60;99.90;;;;;;5032612;28;20203;-70
2022/07/29 04:43:41;;;;;;;2.63;1.63;;;16.70;99.90;;;;;;5034296;28;20214;-69
2022/07/29 04:46:08;;;;;;;1.50;1.40;;;16.70;99.90;;;;;;5033540;28;20230;-68
2022/07/29 04:48:34;;;;;;;2.87;1.30;;;16.80;99.90;;;;;;5032950;28;20210;-70
2022/07/29 04:51:02;;;;;;;1.57;1.47;;;16.90;99.90;;;;;;5032163;28;20691;-70
2022/07/29 04:53:29;;;;;;;1.70;1.50;;;16.90;99.90;;;;;;5026763;28;20206;-69
2022/07/29 04:55:56;;;;;;;3.37;1.70;;;17.00;99.90;;;;;;5034087;28;20202;-69
2022/07/29 04:58:23;;;;;;;4.33;1.50;;;17.00;99.90;;;;;;5034147;28;20656;-69
2022/07/29 05:00:50;;;;;;;2.87;1.17;;;16.90;99.90;;;;;;5030389;28;20234;-69
2022/07/29 05:03:17;;;;;;;2.77;1.33;;;17.00;99.90;;;;;;5031794;28;20209;-69
2022/07/29 05:05:44;;;;;;;1.17;1.00;;;16.90;99.90;;;;;;5032701;28;20215;-69
2022/07/29 05:08:12;;;;;;;1.33;1.10;;;16.90;99.90;;;;;;5033173;28;20574;-69
2022/07/29 05:10:39;;;;;;;4.13;1.50;;;16.90;99.90;;;;;;5032707;28;20227;-69
2022/07/29 05:13:06;;;;;;;5.93;1.50;;;17.00;99.90;;;;;;5032294;28;20223;-69
2022/07/29 05:15:33;;;;;;;6.03;1.50;;;17.00;99.90;;;;;;5028872;28;20202;-68
2022/07/29 05:18:00;;;;;;;2.55;1.15;;;17.10;99.90;;;;;;5032756;28;20719;-68
2022/07/29 05:20:28;;;;;;;3.43;1.20;;;17.20;99.90;;;;;;5031690;28;20210;-68
2022/07/29 05:22:55;;;;;;;7.80;1.87;;;17.20;99.90;;;;;;5028247;28;20214;-68
2022/07/29 05:25:23;;;;;;;3.73;1.30;;;17.30;99.90;;;;;;5033251;28;20226;-69
2022/07/29 05:27:50;;;;;;;1.80;1.13;;;17.40;99.90;;;;;;5033835;28;20218;-69
2022/07/29 05:30:17;;;;;;;2.80;1.47;;;17.50;99.90;;;;;;5030061;28;20230;-69
2022/07/29 05:32:44;;;;;;;1.27;1.10;;;17.50;99.90;;;;;;5028964;28;20213;-68
2022/07/29 05:35:11;;;;;;;2.40;1.13;;;17.60;99.90;;;;;;5030292;28;20215;-70
2022/07/29 05:37:38;;;;;;;5.30;1.33;;;17.70;99.90;;;;;;5031735;28;20260;-71
2022/07/29 05:40:07;;;;;;;1.85;1.13;;;17.70;99.90;;;;;;5030575;28;20215;-68
2022/07/29 05:42:35;;;;;;;3.93;1.20;;;17.80;99.90;;;;;;5030785;28;20206;-72
2022/07/29 05:45:03;;;;;;;3.97;1.00;;;17.90;99.90;;;;;;5031715;28;20218;-66
2022/07/29 05:47:30;;;;;;;2.85;1.25;;;18.00;99.90;;;;;;5032507;28;20202;-66
2022/07/29 05:49:57;;;;;;;4.28;1.10;;;18.20;99.90;;;;;;5030471;28;20226;-69
2022/07/29 05:52:24;;;;;;;3.35;1.10;;;18.30;99.90;;;;;;5033110;28;20572;-67
2022/07/29 05:54:51;;;;;;;2.80;1.23;;;18.40;99.90;;;;;;5031744;28;20317;-69
2022/07/29 05:57:18;;;;;;;3.55;1.10;;;18.50;99.90;;;;;;5032138;28;20199;-67
2022/07/29 05:59:47;;;;;;;3.00;1.13;;;18.60;99.90;;;;;;5032655;28;20209;-67
2022/07/29 06:02:13;;;;;;;1.42;1.10;;;18.60;99.90;;;;;;5031186;28;20207;-68
2022/07/29 06:04:40;;;;;;;1.90;1.27;;;18.70;99.90;;;;;;5030023;28;20229;-69
2022/07/29 06:07:07;;;;;;;3.05;0.90;;;18.70;99.90;;;;;;5031086;28;20289;-70
2022/07/29 06:09:35;;;;;;;2.65;1.15;;;18.70;99.90;;;;;;5021775;28;20230;-71
2022/07/29 06:12:01;;;;;;;1.45;1.15;;;18.80;99.90;;;;;;5031950;28;20604;-72
2022/07/29 06:14:29;;;;;;;7.57;1.33;;;18.90;99.90;;;;;;5030146;28;20206;-71
2022/07/29 06:16:57;;;;;;;1.55;0.60;;;19.00;99.90;;;;;;5030955;28;20206;-69
2022/07/29 06:19:24;;;;;;;3.72;1.00;;;19.10;99.90;;;;;;5031514;28;20214;-71
2022/07/29 06:21:50;;;;;;;3.95;1.50;;;19.20;99.90;;;;;;5031249;28;20604;-71
2022/07/29 06:24:17;;;;;;;1.30;1.10;;;19.20;99.90;;;;;;5029000;28;20872;-71
2022/07/29 06:26:44;;;;;;;1.10;0.90;;;19.30;99.90;;;;;;5027975;28;20231;-72
2022/07/29 06:29:11;;;;;;;5.90;1.55;;;19.40;99.90;;;;;;5031550;28;20651;-71
2022/07/29 06:31:38;;;;;;;3.72;1.10;;;19.40;99.90;;;;;;5029492;28;20215;-71
2022/07/29 06:34:07;;;;;;;1.00;0.80;;;19.50;99.90;;;;;;5032179;28;20663;-71
2022/07/29 06:36:36;;;;;;;1.33;0.75;;;19.60;99.90;;;;;;5032034;28;20294;-71
2022/07/29 06:39:05;;;;;;;4.38;0.75;;;19.70;99.90;;;;;;5027219;28;20276;-72
2022/07/29 06:41:32;;;;;;;12.85;3.72;;;19.70;99.90;;;;;;5026858;28;20210;-72
2022/07/29 06:43:59;;;;;;;2.22;0.98;;;19.70;99.90;;;;;;5032702;28;20233;-72
2022/07/29 06:46:25;;;;;;;1.27;1.17;;;19.80;99.90;;;;;;5032972;28;20630;-71
2022/07/29 06:48:52;;;;;;;1.42;1.10;;;19.80;99.90;;;;;;5033402;28;20206;-72
2022/07/29 06:51:21;;;;;;;1.85;1.10;;;19.90;99.90;;;;;;5036832;28;20218;-71
2022/07/29 06:53:48;;;;;;;3.35;1.00;;;20.00;99.90;;;;;;5036811;28;20242;-73
2022/07/29 06:56:15;;;;;;;4.50;1.10;;;20.10;99.90;;;;;;5034371;28;20203;-71
2022/07/29 06:58:42;;;;;;;2.90;0.93;;;20.20;99.90;;;;;;5036714;28;20667;-72
2022/07/29 07:01:09;;;;;;;2.78;1.00;;;20.20;99.90;;;;;;5035048;28;20232;-72
2022/07/29 07:03:36;;;;;;;1.92;0.98;;;20.20;99.90;;;;;;5035932;28;20230;-72
2022/07/29 07:06:03;;;;;;;2.85;1.10;;;20.30;99.90;;;;;;5040948;28;20206;-72
2022/07/29 07:08:31;;;;;;;5.60;1.33;;;20.40;99.90;;;;;;5036671;28;20210;-72
2022/07/29 07:10:58;;;;;;;2.45;1.05;;;20.50;99.90;;;;;;5032492;28;20230;-72
2022/07/29 07:13:25;;;;;;;2.47;1.08;;;20.70;99.90;;;;;;5036687;28;20309;-72
2022/07/29 07:15:52;;;;;;;4.70;0.80;;;20.90;99.90;;;;;;5035907;28;20210;-72
2022/07/29 07:18:19;;;;;;;3.10;1.02;;;21.00;99.90;;;;;;5035572;28;20561;-73
2022/07/29 07:20:46;;;;;;;3.72;0.90;;;21.10;99.90;;;;;;5034400;28;20213;-72
2022/07/29 07:23:12;;;;;;;3.40;0.90;;;21.20;99.90;;;;;;5036560;28;20206;-72
2022/07/29 07:25:41;;;;;;;1.30;0.70;;;21.20;99.90;;;;;;5036244;28;20721;-72
2022/07/29 07:28:08;;;;;;;5.30;1.17;;;21.30;99.90;;;;;;5037173;28;20272;-73
2022/07/29 07:30:35;;;;;;;1.23;0.80;;;21.30;99.90;;;;;;5036486;28;20579;-72
2022/07/29 07:33:02;;;;;;;2.80;1.00;;;21.40;99.90;;;;;;5036446;28;20214;-72
2022/07/29 07:35:29;;;;;;;5.07;1.25;;;21.60;99.90;;;;;;5036370;28;20233;-72
2022/07/29 07:37:57;;;;;;;2.67;1.00;;;21.70;99.90;;;;;;5036331;28;20203;-72
2022/07/29 07:40:24;;;;;;;2.22;0.88;;;21.80;99.90;;;;;;5036325;28;20543;-72
2022/07/29 07:42:52;;;;;;;2.45;0.93;;;21.90;99.90;;;;;;5033260;28;20210;-73
2022/07/29 07:45:19;;;;;;;1.75;0.85;;;22.10;99.90;;;;;;5027724;28;20253;-72
2022/07/29 07:47:46;;;;;;;2.33;1.10;;;22.20;99.90;;;;;;5031094;28;20207;-73
2022/07/29 07:50:13;;;;;;;1.98;0.98;;;22.40;99.90;;;;;;5035046;28;20229;-73
2022/07/29 07:52:50;;;;;;;0.52;0.52;;;22.50;99.90;;;;;;5035897;28;20225;-72
2022/07/29 07:55:17;;;;;;;3.00;0.85;;;22.60;99.90;;;;;;5034775;28;20598;-73
2022/07/29 07:57:44;;;;;;;1.52;0.90;;;22.80;99.90;;;;;;5035731;28;20207;-73
2022/07/29 08:00:14;;;;;;;4.82;3.08;;;22.80;99.90;;;;;;5034891;28;20199;-73
2022/07/29 08:02:42;;;;;;;2.03;0.70;;;22.80;99.90;;;;;;5029101;28;20684;-72
2022/07/29 08:05:11;;;;;;;4.50;1.08;;;22.90;99.90;;;;;;5030616;28;20571;-73
2022/07/29 08:07:38;;;;;;;2.80;1.08;;;23.00;99.90;;;;;;5035103;28;20215;-73
2022/07/29 08:10:06;;;;;;;5.38;1.70;;;23.10;99.90;;;;;;5035067;28;20222;-72
2022/07/29 08:12:32;;;;;;;6.10;0.88;;;23.30;99.90;;;;;;5034284;28;20207;-73
2022/07/29 08:14:59;;;;;;;1.67;1.10;;;23.50;99.90;;;;;;5035234;28;20213;-72
2022/07/29 08:17:28;;;;;;;1.77;0.70;;;23.60;99.90;;;;;;5034053;28;20519;-73
2022/07/29 08:19:54;;;;;;;1.13;0.80;;;23.80;99.90;;;;;;5035508;28;20706;-73
2022/07/29 08:22:21;;;;;;;2.88;0.70;;;24.00;99.90;;;;;;5034013;28;20206;-71
2022/07/29 08:24:53;;;;;;;3.15;0.90;;;24.10;99.90;;;;;;5035080;28;20222;-72
2022/07/29 08:27:21;;;;;;;2.83;1.00;;;24.20;99.90;;;;;;5034898;28;20213;-73
2022/07/29 08:29:48;;;;;;;4.38;0.93;;;24.30;99.90;;;;;;5033694;28;20219;-73
2022/07/29 08:32:15;;;;;;;1.08;0.88;;;24.50;99.00;;;;;;5033558;28;20210;-73
2022/07/29 08:34:45;;;;;;;1.88;0.85;;;24.60;98.50;;;;;;5025503;28;20210;-72
2022/07/29 08:37:12;;;;;;;1.88;0.90;;;24.60;97.70;;;;;;5034397;28;20206;-72
2022/07/29 08:39:39;;;;;;;2.70;0.90;;;24.80;97.70;;;;;;5030874;28;20214;-72
2022/07/29 08:42:07;;;;;;;3.45;1.13;;;24.90;97.40;;;;;;5032172;28;20209;-73
2022/07/29 08:44:39;;;;;;;1.48;1.05;;;25.10;96.40;;;;;;5029511;28;20214;-73
2022/07/29 08:47:06;;;;;;;2.88;0.90;;;25.20;95.60;;;;;;5032203;28;20217;-72
2022/07/29 08:49:35;;;;;;;2.90;1.00;;;25.30;94.90;;;;;;5032948;28;20214;-73
2022/07/29 08:52:03;;;;;;;0.73;0.50;;;25.40;94.10;;;;;;5033857;28;20238;-72
2022/07/29 08:54:31;;;;;;;2.10;0.85;;;25.60;93.90;;;;;;5022024;28;20326;-72
2022/07/29 08:56:59;;;;;;;2.17;0.88;;;25.70;93.10;;;;;;5033579;28;20221;-72
2022/07/29 08:59:27;;;;;;;1.25;0.80;;;25.70;92.70;;;;;;5036105;28;20217;-72
2022/07/29 09:01:55;;;;;;;5.80;1.20;;;25.80;91.90;;;;;;5032602;28;20210;-72
2022/07/29 09:04:25;;;;;;;4.68;1.10;;;25.80;91.80;;;;;;5034667;28;20695;-72
2022/07/29 09:06:55;;;;;;;3.17;0.88;;;25.80;92.30;;;;;;5033356;28;20198;-72
2022/07/29 09:09:23;;;;;;;4.55;1.00;;;25.90;92.30;;;;;;5035702;28;20298;-73
2022/07/29 09:11:53;;;;;;;2.10;0.85;;;26.20;92.10;;;;;;5031387;28;20242;-74
2022/07/29 09:14:20;;;;;;;1.52;1.00;;;26.30;90.70;;;;;;5034551;28;20210;-74
2022/07/29 09:16:55;;;;;;;1.55;0.80;;;26.40;89.90;;;;;;5034091;28;20217;-73
2022/07/29 09:19:23;;;;;;;2.95;1.00;;;26.50;89.30;;;;;;5032652;28;20209;-73
2022/07/29 09:21:59;;;;;;;1.60;0.82;;;26.60;89.10;;;;;;5030944;28;20207;-72
2022/07/29 09:24:39;;;;;;;2.30;0.82;;;26.70;87.80;;;;;;5033230;28;20220;-72
2022/07/29 09:27:19;;;;;;;3.92;0.80;;;26.80;85.50;;;;;;5033668;28;20230;-72
2022/07/29 09:29:46;;;;;;;1.88;0.90;;;26.90;82.40;;;;;;5030774;28;20615;-72
2022/07/29 09:32:13;;;;;;;1.48;0.75;;;26.90;82.10;;;;;;5032943;28;20226;-72
2022/07/29 09:34:40;;;;;;;2.10;0.70;;;26.90;80.90;;;;;;5031353;28;20214;-73
2022/07/29 09:37:07;;;;;;;1.95;0.98;;;26.90;80.80;;;;;;5026184;28;20214;-70
2022/07/29 09:39:37;;;;;;;2.60;0.70;;;26.70;80.40;;;;;;5027952;28;20203;-72
2022/07/29 09:42:06;;;;;;;2.80;1.40;;;26.50;81.40;;;;;;5030964;28;20290;-73
2022/07/29 09:44:43;;;;;;;4.88;0.90;;;26.40;81.40;;;;;;5029908;28;20202;-72
2022/07/29 09:47:11;;;;;;;2.58;0.80;;;26.40;79.20;;;;;;5033069;28;20636;-73
2022/07/29 09:49:53;;;;;;;1.52;0.70;;;26.50;78.50;;;;;;5028656;28;20238;-73
2022/07/29 09:52:21;;;;;;;2.72;0.98;;;26.70;79.40;;;;;;5024605;28;20210;-73
2022/07/29 09:54:49;;;;;;;3.10;0.98;;;26.90;77.50;;;;;;5024856;28;20244;-72
2022/07/29 09:57:25;;;;;;;1.48;1.00;;;27.00;75.70;;;;;;5027209;28;20269;-71
2022/07/29 10:00:01;;;;;;;2.70;0.70;;;27.00;74.30;;;;;;5027245;28;20202;-72
2022/07/29 10:02:32;;;;;;;2.80;0.80;;;27.00;73.90;;;;;;5021226;28;20206;-72
2022/07/29 10:05:00;;;;;;;2.83;0.90;;;27.00;73.80;;;;;;5019619;28;20211;-74
2022/07/29 10:07:27;;;;;;;2.20;0.50;;;26.80;73.70;;;;;;5032315;28;20229;-72
2022/07/29 10:09:57;;;;;;;2.25;0.70;;;26.60;73.40;;;;;;5030555;28;20226;-73
2022/07/29 10:12:25;;;;;;;8.02;1.50;;;26.50;74.10;;;;;;5037889;28;20233;-74
2022/07/29 10:14:52;;;;;;;1.88;0.63;;;26.50;74.60;;;;;;5036087;28;20202;-73
2022/07/29 10:17:19;;;;;;;2.03;0.63;;;26.50;74.60;;;;;;5029926;28;20221;-72
2022/07/29 10:19:46;;;;;;;1.08;0.80;;;26.50;74.30;;;;;;5022711;28;20212;-73
2022/07/29 10:22:13;;;;;;;1.52;0.82;;;26.30;74.20;;;;;;5028288;28;20209;-73
2022/07/29 10:24:40;;;;;;;2.63;0.88;;;26.10;74.30;;;;;;5032287;28;20548;-72
2022/07/29 10:27:09;;;;;;;1.75;0.70;;;26.10;75.10;;;;;;5032608;28;20341;-73
2022/07/29 10:29:36;;;;;;;1.35;0.63;;;26.10;75.60;;;;;;5032905;28;20207;-72
2022/07/29 10:32:30;;;;;;;0.80;0.60;;;26.30;76.10;;;;;;5032570;28;20222;-73
2022/07/29 10:35:16;;;;;;;3.05;0.50;;;26.50;75.20;;;;;;5028780;28;20202;-73
2022/07/29 10:38:11;;;;;;;1.77;0.70;;;26.60;74.20;;;;;;5026012;28;20199;-74
2022/07/29 10:43:37;;;;;;;1.77;0.77;;;26.70;74.00;;;;;;5032126;28;20193;-73
2022/07/29 10:46:04;;;;;;;3.47;0.93;;;26.90;72.10;;;;;;5033227;28;20739;-73
2022/07/29 10:48:31;;;;;;;1.42;0.73;;;27.00;71.10;;;;;;5033493;28;20218;-72
2022/07/29 10:51:00;;;;;;;0.68;0.50;;;27.10;71.20;;;;;;5032302;28;20587;-72
2022/07/29 10:53:50;;;;;;;1.15;0.60;;;27.30;71.10;;;;;;5033193;28;20217;-73
2022/07/29 10:56:26;;;;;;;2.67;0.60;;;27.40;69.20;;;;;;5024954;28;20199;-73
2022/07/29 10:59:27;;;;;;;2.17;0.50;;;27.50;69.20;;;;;;5030714;28;20214;-73
2022/07/29 11:01:55;;;;;;;4.03;0.88;;;27.80;69.40;;;;;;5030712;28;20699;-76
2022/07/29 11:04:59;;;;;;;1.33;0.77;;;28.00;68.30;;;;;;5029502;28;20234;-73
2022/07/29 11:07:26;;;;;;;2.13;0.70;;;27.80;66.30;;;;;;5029971;28;20206;-73
2022/07/29 11:10:25;;;;;;;1.98;0.80;;;27.60;66.70;;;;;;5031562;28;20221;-74
2022/07/29 11:12:52;;;;;;;4.70;0.90;;;27.50;67.10;;;;;;5019981;28;20218;-73
2022/07/29 11:15:21;;;;;;;1.20;0.70;;;27.40;66.70;;;;;;5030925;28;20215;-73
2022/07/29 11:18:06;;;;;;;1.40;1.15;;;27.20;66.30;;;;;;5030109;28;20214;-72
2022/07/29 11:20:44;;;;;;;1.65;1.00;;;27.20;67.20;;;;;;5030909;28;20203;-73
2022/07/29 11:23:28;;;;;;;2.40;0.60;;;27.30;68.00;;;;;;5030941;28;20212;-74
2022/07/29 11:26:16;;;;;;;1.42;0.60;;;27.40;67.10;;;;;;5030697;28;20230;-73
2022/07/29 11:28:56;;;;;;;0.85;0.70;;;27.30;66.80;;;;;;5023419;28;20300;-72
2022/07/29 11:31:36;;;;;;;1.45;0.80;;;27.50;67.00;;;;;;5021209;28;20217;-72
2022/07/29 11:34:22;;;;;;;4.45;0.88;;;27.50;66.50;;;;;;5026053;28;20210;-71
2022/07/29 11:37:32;;;;;;;2.42;0.60;;;27.50;66.60;;;;;;5027380;28;20565;-70
2022/07/29 11:40:16;;;;;;;1.27;0.70;;;27.30;66.90;;;;;;5023149;28;20222;-70
2022/07/29 11:42:47;;;;;;;3.15;0.77;;;27.30;67.00;;;;;;5034008;28;20612;-68
2022/07/29 11:45:17;;;;;;;2.85;0.90;;;27.20;67.10;;;;;;5024528;28;20194;-69
2022/07/29 11:47:53;;;;;;;1.27;0.75;;;27.20;67.10;;;;;;5033535;28;20217;-68
2022/07/29 11:50:33;;;;;;;0.77;0.60;;;27.10;67.60;;;;;;5022714;28;20245;-71
2022/07/29 11:53:01;;;;;;;10.00;1.15;;;27.00;67.80;;;;;;5031034;28;20219;-69
2022/07/29 11:55:28;;;;;;;1.10;0.57;;;27.00;67.70;;;;;;5033850;28;20237;-71
2022/07/29 11:57:58;;;;;;;3.33;0.75;;;27.00;67.60;;;;;;5034099;28;20213;-70
2022/07/29 12:00:28;;;;;;;2.25;0.70;;;27.10;67.00;;;;;;5033233;28;20586;-70
2022/07/29 12:02:57;;;;;;;3.25;0.80;;;27.20;66.90;;;;;;5032457;28;20657;-69
2022/07/29 12:05:33;;;;;;;0.77;0.50;;;27.40;66.80;;;;;;5033866;28;20215;-69
2022/07/29 12:08:06;;;;;;;2.63;0.70;;;27.50;66.40;;;;;;5031533;28;20206;-69
2022/07/29 12:10:34;;;;;;;2.42;0.60;;;27.50;66.90;;;;;;5031636;28;20234;-66
2022/07/29 12:13:00;;;;;;;1.13;0.50;;;27.70;66.90;;;;;;5026796;28;20235;-68
2022/07/29 12:15:27;;;;;;;0.50;0.50;;;27.80;65.80;;;;;;5027583;28;20237;-68
2022/07/29 12:17:55;;;;;;;1.30;0.60;;;28.10;63.70;;;;;;5035245;28;20218;-68
2022/07/29 12:20:27;;;;;;;2.75;0.80;;;28.30;63.20;;;;;;5034924;28;20622;-66
2022/07/29 12:22:54;;;;;;;1.00;0.60;;;28.40;62.80;;;;;;5019046;28;20670;-67
2022/07/29 12:25:22;;;;;;;3.10;0.70;;;28.40;62.80;;;;;;5031866;28;20237;-69
2022/07/29 12:27:59;;;;;;;1.95;0.47;;;28.50;62.60;;;;;;5034973;28;20222;-69
2022/07/29 12:30:40;;;;;;;1.33;0.70;;;28.50;61.90;;;;;;5034006;28;20556;-68
2022/07/29 12:33:18;;;;;;;1.75;0.70;;;28.40;61.60;;;;;;5021486;28;20222;-69
2022/07/29 12:35:47;;;;;;;1.05;0.68;;;28.30;62.20;;;;;;5027625;28;20261;-69
2022/07/29 12:38:14;;;;;;;1.50;0.50;;;28.20;62.20;;;;;;5033097;28;20596;-69
2022/07/29 12:40:42;;;;;;;1.75;0.68;;;28.00;61.70;;;;;;5027685;28;20211;-68
2022/07/29 12:43:13;;;;;;;2.40;0.80;;;27.70;62.40;;;;;;5030595;28;20210;-71
2022/07/29 12:45:43;;;;;;;0.60;0.60;;;27.30;63.00;;;;;;5023898;28;20215;-70
2022/07/29 12:48:10;;;;;;;5.47;1.40;;;27.10;63.90;;;;;;5031283;28;20233;-71
2022/07/29 12:50:53;;;;;;;1.52;0.65;;;27.00;64.40;;;;;;5027672;28;20214;-69
2022/07/29 12:53:20;;;;;;;1.17;0.68;;;26.90;65.20;;;;;;5031276;28;20227;-70
2022/07/29 12:55:51;;;;;;;2.13;0.80;;;27.00;65.50;;;;;;5029949;28;20207;-69
2022/07/29 12:58:28;;;;;;;3.08;0.55;;;27.00;65.30;;;;;;5031343;28;20230;-70
2022/07/29 13:01:08;;;;;;;2.30;0.75;;;27.00;64.80;;;;;;5032134;28;20202;-68
2022/07/29 13:03:49;;;;;;;0.95;0.82;;;26.90;64.70;;;;;;5023420;28;20222;-69
2022/07/29 13:06:35;;;;;;;1.38;0.60;;;26.90;65.30;;;;;;5027010;28;20207;-70